Time;durP1;ratioP1;P1;durP2;ratioP2;P2;SDS_P1;SDS_P2;PMS_P1;PMS_P2;Temp;Humidity;BMP_temperature;BMP_pressure;BME280_temperature;BME280_humidity;BME280_pressure;Samples;Min_cycle;Max_cycle;Signal;HPM_P1;HPM_P2
2024/02/21 00:00:41;;;;;;;22.40;8.87;;;11.20;99.90;;;;;;7309944;19;20228;-79
2024/02/21 00:03:07;;;;;;;29.63;9.70;;;11.20;99.90;;;;;;7286367;19;20202;-78
2024/02/21 00:05:33;;;;;;;27.07;9.83;;;11.30;99.90;;;;;;7286758;19;20181;-80
2024/02/21 00:07:59;;;;;;;24.80;8.63;;;11.30;99.90;;;;;;7288617;19;20188;-79
2024/02/21 00:10:25;;;;;;;25.80;9.47;;;11.30;99.90;;;;;;7285803;19;20189;-79
2024/02/21 00:12:51;;;;;;;27.10;9.57;;;11.20;99.90;;;;;;7287431;19;20196;-79
2024/02/21 00:15:17;;;;;;;30.33;9.77;;;11.20;99.90;;;;;;7288234;19;20192;-79
2024/02/21 00:17:44;;;;;;;30.00;10.03;;;11.30;99.90;;;;;;7286773;19;20196;-79
2024/02/21 00:20:10;;;;;;;30.43;10.20;;;11.30;99.90;;;;;;7288060;19;20210;-79
2024/02/21 00:22:36;;;;;;;30.13;10.33;;;11.40;99.90;;;;;;7307637;19;20542;-79
2024/02/21 00:25:02;;;;;;;27.67;10.43;;;11.40;99.90;;;;;;7284945;19;20181;-80
2024/02/21 00:27:28;;;;;;;31.67;11.63;;;11.30;99.90;;;;;;7287113;19;20192;-79
2024/02/21 00:29:54;;;;;;;32.83;11.47;;;11.30;99.90;;;;;;7286750;19;20193;-79
2024/02/21 00:32:19;;;;;;;31.07;11.80;;;11.30;99.90;;;;;;7287157;19;20188;-79
2024/02/21 00:34:45;;;;;;;32.28;13.30;;;11.20;99.90;;;;;;7285307;19;20696;-80
2024/02/21 00:37:11;;;;;;;29.33;12.53;;;11.10;99.90;;;;;;7287479;19;20196;-79
2024/02/21 00:39:37;;;;;;;31.80;11.87;;;11.00;99.90;;;;;;7307484;19;20252;-79
2024/02/21 00:42:03;;;;;;;27.33;12.00;;;10.90;99.90;;;;;;7286234;19;20251;-79
2024/02/21 00:44:28;;;;;;;31.97;12.60;;;10.90;99.90;;;;;;7286853;19;20205;-79
2024/02/21 00:46:55;;;;;;;31.80;12.60;;;11.00;99.90;;;;;;7287521;19;20177;-79
2024/02/21 00:49:21;;;;;;;29.90;12.27;;;11.10;99.90;;;;;;7286882;19;20187;-79
2024/02/21 00:51:47;;;;;;;35.43;12.00;;;11.20;99.90;;;;;;7286335;19;20298;-79
2024/02/21 00:54:13;;;;;;;31.97;12.67;;;11.00;99.90;;;;;;7285912;19;20311;-79
2024/02/21 00:56:39;;;;;;;29.53;12.23;;;11.00;99.90;;;;;;7302541;19;20192;-79
2024/02/21 00:59:04;;;;;;;31.53;11.50;;;10.90;99.90;;;;;;7297767;19;20181;-79
2024/02/21 01:01:30;;;;;;;32.10;11.13;;;10.80;99.90;;;;;;7286022;19;20770;-79
2024/02/21 01:03:56;;;;;;;33.30;11.57;;;10.90;99.90;;;;;;7284368;19;20207;-79
2024/02/21 01:06:22;;;;;;;30.00;11.13;;;10.90;99.90;;;;;;7281919;19;20186;-79
2024/02/21 01:08:47;;;;;;;25.23;11.17;;;10.80;99.90;;;;;;7284226;19;20194;-79
2024/02/21 01:11:14;;;;;;;29.83;11.70;;;10.80;99.90;;;;;;7283824;19;20672;-79
2024/02/21 01:13:40;;;;;;;29.33;11.33;;;10.80;99.90;;;;;;7302546;19;20185;-79
2024/02/21 01:16:06;;;;;;;28.33;11.40;;;10.80;99.90;;;;;;7298841;19;20209;-79
2024/02/21 01:18:37;;;;;;;28.37;11.43;;;10.90;99.90;;;;;;7282105;19;20198;-79
2024/02/21 01:21:06;;;;;;;24.90;10.57;;;10.80;99.90;;;;;;7284362;19;20224;-80
2024/02/21 01:23:33;;;;;;;29.07;10.80;;;10.70;99.90;;;;;;7283343;19;20195;-79
2024/02/21 01:25:58;;;;;;;29.77;10.80;;;10.60;99.90;;;;;;7286225;19;20262;-79
2024/02/21 01:28:24;;;;;;;31.63;11.43;;;10.70;99.90;;;;;;7283551;19;20852;-79
2024/02/21 01:30:50;;;;;;;31.57;11.87;;;10.70;99.90;;;;;;7284649;19;20663;-79
2024/02/21 01:33:16;;;;;;;30.37;10.93;;;10.80;99.90;;;;;;7285523;19;20260;-79
2024/02/21 01:35:42;;;;;;;31.40;11.70;;;10.80;99.90;;;;;;7284925;19;20634;-79
2024/02/21 01:38:07;;;;;;;28.80;11.40;;;10.70;99.90;;;;;;7307155;19;20296;-80
2024/02/21 01:40:33;;;;;;;30.93;11.67;;;10.70;99.90;;;;;;7284712;19;20200;-80
2024/02/21 01:42:59;;;;;;;32.67;11.80;;;10.70;99.90;;;;;;7284917;19;20206;-79
2024/02/21 01:45:24;;;;;;;30.20;11.20;;;10.60;99.90;;;;;;7283812;19;20187;-79
2024/02/21 01:47:50;;;;;;;29.43;11.47;;;10.50;99.90;;;;;;7285514;19;20887;-79
2024/02/21 01:50:17;;;;;;;29.77;12.20;;;10.50;99.90;;;;;;7283648;19;20244;-80
2024/02/21 01:52:47;;;;;;;31.63;11.67;;;10.60;99.90;;;;;;7284654;19;20192;-79
2024/02/21 01:55:14;;;;;;;27.00;11.37;;;10.60;99.90;;;;;;7282588;19;20200;-79
2024/02/21 01:57:45;;;;;;;28.70;11.10;;;10.60;99.90;;;;;;7290661;19;20184;-80
2024/02/21 02:00:14;;;;;;;26.07;10.60;;;10.60;99.90;;;;;;7283316;19;20207;-80
2024/02/21 02:02:41;;;;;;;26.77;10.73;;;10.50;99.90;;;;;;7287053;19;20190;-79
2024/02/21 02:05:08;;;;;;;27.00;11.70;;;10.60;99.90;;;;;;7305761;19;20279;-80
2024/02/21 02:07:33;;;;;;;24.43;10.60;;;10.70;99.90;;;;;;7283406;19;20258;-80
2024/02/21 02:09:59;;;;;;;25.77;11.30;;;10.60;99.90;;;;;;7282794;19;20606;-80
2024/02/21 02:12:25;;;;;;;26.90;10.80;;;10.70;99.90;;;;;;7283678;19;20536;-80
2024/02/21 02:15:04;;;;;;;28.03;11.33;;;10.70;99.90;;;;;;7284551;19;20203;-80
2024/02/21 02:17:30;;;;;;;27.73;11.50;;;10.80;99.90;;;;;;7283693;19;20180;-80
2024/02/21 02:19:56;;;;;;;28.97;11.20;;;10.80;99.90;;;;;;7283089;19;20205;-80
2024/02/21 02:22:27;;;;;;;32.30;10.70;;;10.80;99.90;;;;;;7282721;19;20193;-79
2024/02/21 02:24:54;;;;;;;29.83;10.20;;;10.70;99.90;;;;;;7283715;19;20592;-81
2024/02/21 02:27:20;;;;;;;31.17;11.23;;;10.80;99.90;;;;;;7282854;19;20568;-80
2024/02/21 02:29:45;;;;;;;27.63;10.43;;;10.80;99.90;;;;;;7280632;19;20216;-80
2024/02/21 02:32:12;;;;;;;29.77;10.10;;;10.80;99.90;;;;;;7283795;19;20652;-79
2024/02/21 02:34:38;;;;;;;29.57;10.27;;;11.00;99.90;;;;;;7303253;19;20270;-79
2024/02/21 02:37:04;;;;;;;24.97;10.50;;;11.00;99.90;;;;;;7284415;19;20212;-79
2024/02/21 02:39:29;;;;;;;28.00;10.03;;;11.00;99.90;;;;;;7283100;19;20273;-79
2024/02/21 02:41:55;;;;;;;26.73;10.40;;;11.00;99.90;;;;;;7283146;19;20192;-80
2024/02/21 02:44:21;;;;;;;27.23;9.97;;;10.80;99.90;;;;;;7282491;19;20201;-80
2024/02/21 02:46:47;;;;;;;25.60;9.67;;;10.90;99.90;;;;;;7284005;19;20192;-80
2024/02/21 02:49:14;;;;;;;26.93;10.77;;;10.70;99.90;;;;;;7281668;19;20255;-79
2024/02/21 02:51:43;;;;;;;24.53;10.33;;;10.70;99.90;;;;;;7291861;19;20640;-80
2024/02/21 02:54:09;;;;;;;32.53;9.83;;;10.80;99.90;;;;;;7297766;19;20545;-79
2024/02/21 02:56:35;;;;;;;27.20;10.17;;;10.80;99.90;;;;;;7301487;19;20526;-81
2024/02/21 02:59:01;;;;;;;28.20;10.70;;;10.80;99.90;;;;;;7282094;19;20195;-80
2024/02/21 03:01:27;;;;;;;28.20;10.80;;;10.70;99.90;;;;;;7283613;19;20226;-79
2024/02/21 03:03:53;;;;;;;27.23;10.37;;;10.60;99.90;;;;;;7281560;19;20219;-80
2024/02/21 03:06:19;;;;;;;30.77;10.47;;;10.60;99.90;;;;;;7282370;19;20233;-79
2024/02/21 03:08:45;;;;;;;25.90;10.13;;;10.70;99.90;;;;;;7282733;19;20262;-80
2024/02/21 03:11:11;;;;;;;28.40;10.50;;;10.60;99.90;;;;;;7282444;19;20603;-79
2024/02/21 03:13:37;;;;;;;25.30;10.33;;;10.70;99.90;;;;;;7303583;19;20183;-80
2024/02/21 03:16:03;;;;;;;29.43;10.50;;;10.70;99.90;;;;;;7282804;19;20191;-80
2024/02/21 03:18:29;;;;;;;25.30;10.37;;;10.70;99.90;;;;;;7281539;19;20205;-80
2024/02/21 03:20:54;;;;;;;32.77;10.90;;;10.70;99.90;;;;;;7282367;19;20199;-80
2024/02/21 03:23:20;;;;;;;26.93;10.60;;;10.60;99.90;;;;;;7281878;19;20231;-80
2024/02/21 03:25:46;;;;;;;28.97;10.83;;;10.60;99.90;;;;;;7282125;19;20275;-80
2024/02/21 03:28:12;;;;;;;26.73;10.80;;;10.60;99.90;;;;;;7280249;19;20196;-79
2024/02/21 03:30:38;;;;;;;33.67;10.97;;;10.60;99.90;;;;;;7303336;19;20197;-80
2024/02/21 03:33:04;;;;;;;24.40;10.83;;;10.70;99.90;;;;;;7282912;19;20192;-80
2024/02/21 03:35:29;;;;;;;35.33;10.90;;;10.70;99.90;;;;;;7283133;19;20188;-80
2024/02/21 03:37:55;;;;;;;25.27;10.50;;;10.70;99.90;;;;;;7280642;19;20969;-80
2024/02/21 03:40:21;;;;;;;30.30;11.37;;;10.80;99.90;;;;;;7281363;19;20215;-80
2024/02/21 03:42:46;;;;;;;28.67;10.27;;;10.70;99.90;;;;;;7280913;19;20697;-80
2024/02/21 03:45:12;;;;;;;24.47;10.07;;;10.80;99.90;;;;;;7282914;19;20197;-79
2024/02/21 03:47:38;;;;;;;27.20;11.20;;;10.80;99.90;;;;;;7311873;19;20192;-80
2024/02/21 03:50:05;;;;;;;24.87;10.20;;;10.80;99.90;;;;;;7288858;19;20203;-80
2024/02/21 03:52:31;;;;;;;22.77;10.17;;;11.00;99.90;;;;;;7288298;19;20925;-80
2024/02/21 03:54:58;;;;;;;33.80;11.00;;;11.00;99.90;;;;;;7288501;19;20199;-80
2024/02/21 03:57:24;;;;;;;27.67;10.77;;;10.80;99.90;;;;;;7286020;19;20193;-80
2024/02/21 03:59:51;;;;;;;32.37;11.30;;;10.80;99.90;;;;;;7286644;19;20224;-80
2024/02/21 04:02:17;;;;;;;29.73;10.63;;;10.80;99.90;;;;;;7287964;19;20276;-79
2024/02/21 04:04:46;;;;;;;22.97;10.17;;;10.80;99.90;;;;;;7286235;19;20184;-79
2024/02/21 04:07:14;;;;;;;27.30;10.53;;;10.90;99.90;;;;;;7287138;19;20675;-79
2024/02/21 04:09:39;;;;;;;26.77;10.53;;;10.90;99.90;;;;;;7298164;19;20191;-80
2024/02/21 04:12:06;;;;;;;25.90;10.67;;;10.90;99.90;;;;;;7304600;19;20211;-80
2024/02/21 04:14:31;;;;;;;30.37;11.10;;;10.80;99.90;;;;;;7285749;19;20189;-80
2024/02/21 04:16:57;;;;;;;26.80;11.17;;;10.70;99.90;;;;;;7287828;19;20192;-80
2024/02/21 04:19:23;;;;;;;25.73;10.97;;;10.70;99.90;;;;;;7286054;19;20923;-79
2024/02/21 04:21:48;;;;;;;26.87;10.40;;;10.80;99.90;;;;;;7287190;19;20184;-80
2024/02/21 04:24:14;;;;;;;26.20;10.53;;;10.80;99.90;;;;;;7285021;19;20225;-79
2024/02/21 04:26:40;;;;;;;24.57;10.90;;;10.70;99.90;;;;;;7293960;19;20586;-79
2024/02/21 04:29:06;;;;;;;27.83;10.87;;;10.70;99.90;;;;;;7306799;19;20673;-80
2024/02/21 04:31:35;;;;;;;27.47;11.00;;;10.50;99.90;;;;;;7286024;19;20191;-80
2024/02/21 04:34:01;;;;;;;24.80;10.40;;;10.50;99.90;;;;;;7283353;19;20194;-80
2024/02/21 04:36:26;;;;;;;29.57;11.47;;;10.50;99.90;;;;;;7284284;19;20510;-80
2024/02/21 04:38:52;;;;;;;25.03;10.20;;;10.60;99.90;;;;;;7281049;19;20202;-80
2024/02/21 04:41:18;;;;;;;24.93;10.90;;;10.50;99.90;;;;;;7282429;19;21068;-80
2024/02/21 04:43:45;;;;;;;26.67;11.27;;;10.60;99.90;;;;;;7284914;19;20202;-79
2024/02/21 04:46:11;;;;;;;27.40;10.97;;;10.60;99.90;;;;;;7282323;19;20263;-79
2024/02/21 04:48:36;;;;;;;28.63;11.13;;;10.60;99.90;;;;;;7305600;19;20619;-80
2024/02/21 04:51:02;;;;;;;27.53;10.63;;;10.50;99.90;;;;;;7286252;19;20185;-80
2024/02/21 04:53:28;;;;;;;22.97;10.77;;;10.50;99.90;;;;;;7285014;19;20846;-79
2024/02/21 04:55:54;;;;;;;22.83;11.20;;;10.60;99.90;;;;;;7285825;19;20191;-80
2024/02/21 04:58:19;;;;;;;24.13;10.77;;;10.60;99.90;;;;;;7283900;19;20188;-80
2024/02/21 05:00:47;;;;;;;24.27;10.87;;;10.50;99.90;;;;;;7284783;19;20212;-80
2024/02/21 05:03:12;;;;;;;24.23;10.57;;;10.40;99.90;;;;;;7285635;19;20192;-79
2024/02/21 05:05:38;;;;;;;24.03;10.00;;;10.50;99.90;;;;;;7307574;19;20203;-80
2024/02/21 05:08:04;;;;;;;23.53;10.30;;;10.50;99.90;;;;;;7285651;19;20562;-80
2024/02/21 05:10:30;;;;;;;23.07;10.17;;;10.60;99.90;;;;;;7285737;19;20189;-80
2024/02/21 05:12:55;;;;;;;20.30;9.87;;;10.60;99.90;;;;;;7285127;19;20886;-81
2024/02/21 05:15:22;;;;;;;23.23;9.93;;;10.40;99.90;;;;;;7286269;19;20617;-80
2024/02/21 05:17:48;;;;;;;21.67;9.23;;;10.40;99.90;;;;;;7283033;19;20183;-80
2024/02/21 05:20:14;;;;;;;21.20;8.80;;;10.40;99.90;;;;;;7287175;19;20199;-81
2024/02/21 05:22:39;;;;;;;21.17;8.53;;;10.30;99.90;;;;;;7299794;19;20194;-81
2024/02/21 05:25:06;;;;;;;24.13;9.20;;;10.30;99.90;;;;;;7300701;19;20209;-81
2024/02/21 05:27:31;;;;;;;22.97;9.40;;;10.20;99.90;;;;;;7284755;19;20202;-80
2024/02/21 05:29:58;;;;;;;19.87;8.63;;;10.20;99.90;;;;;;7285346;19;20638;-81
2024/02/21 05:32:24;;;;;;;21.07;8.57;;;10.10;99.90;;;;;;7284015;19;20207;-81
2024/02/21 05:34:51;;;;;;;18.17;8.57;;;10.20;99.90;;;;;;7284630;19;20222;-81
2024/02/21 05:37:16;;;;;;;19.40;8.40;;;10.30;99.90;;;;;;7281408;19;20187;-78
2024/02/21 05:39:42;;;;;;;19.07;8.53;;;10.30;99.90;;;;;;7285745;19;20215;-81
2024/02/21 05:42:08;;;;;;;18.73;8.17;;;10.40;99.90;;;;;;7305579;19;20197;-78
2024/02/21 05:44:33;;;;;;;16.17;7.30;;;10.40;99.90;;;;;;7285060;19;20190;-78
2024/02/21 05:46:59;;;;;;;19.60;8.63;;;10.40;99.90;;;;;;7285999;19;20276;-81
2024/02/21 05:49:25;;;;;;;14.63;8.00;;;10.40;99.90;;;;;;7284829;19;20190;-82
2024/02/21 05:51:50;;;;;;;19.40;7.37;;;10.40;99.90;;;;;;7284152;19;20489;-80
2024/02/21 05:54:16;;;;;;;17.60;7.93;;;10.40;99.90;;;;;;7284674;19;20195;-82
2024/02/21 05:56:47;;;;;;;16.20;7.50;;;10.40;99.90;;;;;;7284038;19;20192;-82
2024/02/21 05:59:13;;;;;;;15.10;7.70;;;10.30;99.90;;;;;;7282505;19;20193;-80
2024/02/21 06:01:39;;;;;;;16.03;7.80;;;10.40;99.90;;;;;;7305229;19;20229;-80
2024/02/21 06:04:05;;;;;;;16.87;7.33;;;10.40;99.90;;;;;;7294109;19;20195;-80
2024/02/21 06:06:31;;;;;;;16.83;7.40;;;10.50;99.90;;;;;;7283569;19;20857;-78
2024/02/21 06:08:58;;;;;;;14.37;6.87;;;10.50;99.90;;;;;;7281199;19;20220;-80
2024/02/21 06:11:24;;;;;;;19.73;7.63;;;10.50;99.90;;;;;;7284247;19;20221;-80
2024/02/21 06:13:50;;;;;;;22.03;9.20;;;10.50;99.90;;;;;;7283591;19;20559;-80
2024/02/21 06:16:17;;;;;;;20.50;8.40;;;10.40;99.90;;;;;;7281754;19;20189;-80
2024/02/21 06:18:43;;;;;;;25.40;9.53;;;10.40;99.90;;;;;;7284231;19;20275;-79
2024/02/21 06:21:10;;;;;;;20.07;9.57;;;10.40;99.90;;;;;;7305077;19;20186;-80
2024/02/21 06:23:37;;;;;;;28.73;11.60;;;10.40;99.90;;;;;;7282662;19;20559;-80
2024/02/21 06:26:03;;;;;;;18.83;9.57;;;10.40;99.90;;;;;;7282889;19;20179;-82
2024/02/21 06:28:29;;;;;;;20.30;10.20;;;10.40;99.90;;;;;;7281049;19;20208;-79
2024/02/21 06:30:54;;;;;;;18.97;10.27;;;10.50;99.90;;;;;;7282267;19;20190;-80
2024/02/21 06:33:24;;;;;;;23.50;11.13;;;10.50;99.90;;;;;;7282626;19;20989;-80
2024/02/21 06:35:52;;;;;;;20.13;10.40;;;10.50;99.90;;;;;;7282479;19;20191;-80
2024/02/21 06:38:19;;;;;;;22.30;10.40;;;10.60;99.90;;;;;;7283052;19;20193;-80
2024/02/21 06:40:49;;;;;;;19.90;9.57;;;10.70;99.90;;;;;;7284004;19;20280;-80
2024/02/21 06:43:16;;;;;;;21.63;9.93;;;10.60;99.90;;;;;;7283961;19;20773;-81
2024/02/21 06:45:42;;;;;;;18.23;8.67;;;10.60;99.90;;;;;;7282640;19;20246;-81
2024/02/21 06:48:08;;;;;;;20.77;9.53;;;10.50;99.90;;;;;;7304855;19;20200;-81
2024/02/21 06:50:33;;;;;;;20.80;10.37;;;10.60;99.90;;;;;;7285639;19;20187;-80
2024/02/21 06:52:59;;;;;;;21.80;10.67;;;10.60;99.90;;;;;;7283226;19;20198;-81
2024/02/21 06:55:25;;;;;;;20.80;10.30;;;10.60;99.90;;;;;;7285198;19;20192;-81
2024/02/21 06:57:50;;;;;;;23.97;11.33;;;10.60;99.90;;;;;;7283593;19;20248;-81
2024/02/21 07:00:17;;;;;;;21.20;10.83;;;10.60;99.90;;;;;;7282229;19;20195;-81
2024/02/21 07:02:42;;;;;;;21.27;10.63;;;10.30;99.90;;;;;;7284272;19;20666;-80
2024/02/21 07:05:08;;;;;;;23.20;10.70;;;10.30;99.90;;;;;;7305170;19;20190;-81
2024/02/21 07:07:35;;;;;;;21.23;10.87;;;10.30;99.90;;;;;;7283073;19;20202;-81
2024/02/21 07:10:00;;;;;;;22.90;11.00;;;10.30;99.90;;;;;;7283256;19;20190;-81
2024/02/21 07:12:26;;;;;;;22.10;11.37;;;10.20;99.90;;;;;;7283661;19;20190;-81
2024/02/21 07:14:52;;;;;;;19.87;11.00;;;10.30;99.90;;;;;;7282896;19;20521;-81
2024/02/21 07:17:17;;;;;;;26.53;12.27;;;10.40;99.90;;;;;;7283454;19;20257;-80
2024/02/21 07:19:43;;;;;;;20.33;10.80;;;10.30;99.90;;;;;;7283473;19;20249;-79
2024/02/21 07:22:09;;;;;;;21.03;11.10;;;10.30;99.90;;;;;;7312964;19;20204;-80
2024/02/21 07:24:34;;;;;;;22.53;10.17;;;10.40;99.90;;;;;;7289664;19;20204;-80
2024/02/21 07:27:04;;;;;;;19.17;9.43;;;10.40;99.90;;;;;;7290619;19;20217;-80
2024/02/21 07:29:30;;;;;;;18.27;9.50;;;10.30;99.90;;;;;;7289762;19;20215;-80
2024/02/21 07:31:56;;;;;;;18.90;8.67;;;10.30;99.90;;;;;;7289833;19;20218;-80
2024/02/21 07:34:22;;;;;;;19.03;9.60;;;10.30;99.90;;;;;;7289758;19;20256;-80
2024/02/21 07:36:48;;;;;;;19.70;8.30;;;10.40;99.90;;;;;;7289123;19;20192;-80
2024/02/21 07:39:13;;;;;;;19.00;8.80;;;10.50;99.90;;;;;;7290218;19;20202;-80
2024/02/21 07:41:41;;;;;;;22.53;8.43;;;10.30;99.90;;;;;;7311665;19;20187;-77
2024/02/21 07:44:06;;;;;;;18.30;7.83;;;10.40;99.90;;;;;;7289954;19;20199;-80
2024/02/21 07:46:32;;;;;;;16.27;8.43;;;10.40;99.90;;;;;;7289449;19;20221;-80
2024/02/21 07:48:58;;;;;;;17.33;7.63;;;10.30;99.90;;;;;;7289306;19;20251;-80
2024/02/21 07:51:28;;;;;;;14.03;6.90;;;10.40;99.90;;;;;;7289001;19;20238;-80
2024/02/21 07:53:53;;;;;;;18.60;6.93;;;10.40;99.90;;;;;;7289571;19;20223;-80
2024/02/21 07:56:19;;;;;;;13.67;6.40;;;10.30;99.90;;;;;;7289092;19;20195;-81
2024/02/21 07:58:45;;;;;;;13.83;6.83;;;10.20;99.90;;;;;;7290042;19;20197;-80
2024/02/21 08:01:11;;;;;;;16.63;6.97;;;10.30;99.90;;;;;;7291823;19;20191;-79
2024/02/21 08:03:37;;;;;;;19.27;6.97;;;10.20;99.90;;;;;;7308190;19;20763;-80
2024/02/21 08:06:03;;;;;;;16.03;6.77;;;10.30;99.90;;;;;;7286720;19;20195;-80
2024/02/21 08:08:29;;;;;;;19.27;7.10;;;10.30;99.90;;;;;;7286783;19;20194;-80
2024/02/21 08:10:54;;;;;;;16.87;6.90;;;10.30;99.90;;;;;;7288065;19;20255;-80
2024/02/21 08:13:20;;;;;;;16.67;6.97;;;10.30;99.90;;;;;;7288055;19;20236;-79
2024/02/21 08:15:46;;;;;;;14.93;6.30;;;10.30;99.90;;;;;;7285928;19;20188;-78
2024/02/21 08:18:12;;;;;;;15.27;6.60;;;10.40;99.90;;;;;;7285506;19;21038;-77
2024/02/21 08:20:38;;;;;;;15.20;6.00;;;10.40;99.90;;;;;;7306385;19;20219;-78
2024/02/21 08:23:03;;;;;;;14.17;5.33;;;10.40;99.90;;;;;;7287132;19;20187;-78
2024/02/21 08:25:29;;;;;;;17.40;5.60;;;10.30;99.90;;;;;;7287727;19;20348;-78
2024/02/21 08:27:59;;;;;;;16.80;5.53;;;10.30;99.90;;;;;;7287421;19;20200;-78
2024/02/21 08:30:25;;;;;;;13.33;5.30;;;10.40;99.90;;;;;;7285987;19;20198;-78
2024/02/21 08:32:53;;;;;;;12.03;5.00;;;10.40;99.90;;;;;;7283211;19;20605;-78
2024/02/21 08:35:22;;;;;;;14.77;5.20;;;10.40;99.90;;;;;;7287397;19;20187;-77
2024/02/21 08:37:48;;;;;;;14.53;5.40;;;10.40;99.90;;;;;;7285646;19;20208;-77
2024/02/21 08:40:17;;;;;;;14.47;5.10;;;10.30;99.90;;;;;;7287231;19;20782;-77
2024/02/21 08:42:43;;;;;;;12.23;4.90;;;10.30;99.90;;;;;;7286040;19;20264;-77
2024/02/21 08:45:09;;;;;;;13.57;4.67;;;10.30;99.90;;;;;;7307931;19;20209;-78
2024/02/21 08:47:35;;;;;;;12.13;4.93;;;10.40;99.90;;;;;;7287523;19;20184;-78
2024/02/21 08:50:02;;;;;;;12.27;4.33;;;10.40;99.90;;;;;;7285152;19;20181;-78
2024/02/21 08:52:28;;;;;;;11.97;5.23;;;10.40;99.90;;;;;;7287023;19;20199;-78
2024/02/21 08:54:54;;;;;;;12.70;4.80;;;10.30;99.90;;;;;;7285878;19;20686;-78
2024/02/21 08:57:20;;;;;;;14.13;4.33;;;10.50;99.90;;;;;;7286132;19;20215;-78
2024/02/21 08:59:47;;;;;;;10.43;4.40;;;10.50;99.90;;;;;;7285232;19;20623;-77
2024/02/21 09:02:13;;;;;;;9.93;4.40;;;10.50;99.90;;;;;;7285219;19;20188;-77
2024/02/21 09:04:38;;;;;;;12.97;5.00;;;10.60;99.90;;;;;;7308796;19;20182;-77
2024/02/21 09:07:04;;;;;;;12.97;5.10;;;10.60;99.90;;;;;;7286244;19;20216;-78
2024/02/21 09:09:31;;;;;;;10.30;4.33;;;10.70;99.90;;;;;;7285608;19;20266;-78
2024/02/21 09:11:57;;;;;;;12.50;5.00;;;10.70;99.90;;;;;;7285452;19;20196;-78
2024/02/21 09:14:23;;;;;;;17.10;5.23;;;10.90;99.90;;;;;;7287035;19;20218;-78
2024/02/21 09:16:48;;;;;;;12.37;5.10;;;10.90;99.90;;;;;;7286050;19;20188;-78
2024/02/21 09:19:14;;;;;;;14.40;4.93;;;10.90;99.90;;;;;;7284748;19;20201;-78
2024/02/21 09:21:40;;;;;;;15.63;4.70;;;10.90;99.90;;;;;;7303673;19;20591;-76
2024/02/21 09:24:06;;;;;;;15.03;5.30;;;10.90;99.90;;;;;;7297670;19;20180;-78
2024/02/21 09:26:31;;;;;;;11.90;5.03;;;11.00;99.90;;;;;;7285924;19;20188;-77
2024/02/21 09:28:57;;;;;;;14.60;4.43;;;11.00;99.90;;;;;;7285464;19;20194;-78
2024/02/21 09:31:23;;;;;;;12.80;4.43;;;11.00;99.90;;;;;;7285409;19;20554;-78
2024/02/21 09:33:49;;;;;;;10.03;4.20;;;11.00;99.90;;;;;;7285863;19;20173;-78
2024/02/21 09:36:15;;;;;;;16.40;4.87;;;11.20;99.90;;;;;;7285838;19;20624;-77
2024/02/21 09:38:41;;;;;;;12.10;4.30;;;11.20;99.90;;;;;;7295514;19;20517;-78
2024/02/21 09:41:18;;;;;;;12.57;4.33;;;11.10;99.90;;;;;;7308226;19;20640;-78
2024/02/21 09:43:47;;;;;;;16.43;4.33;;;11.20;99.90;;;;;;7263173;19;20183;-79
2024/02/21 09:46:18;;;;;;;12.57;4.60;;;11.30;99.90;;;;;;7285455;19;20305;-78
2024/02/21 09:49:08;;;;;;;12.50;4.30;;;11.30;99.90;;;;;;7285947;19;20180;-78
2024/02/21 09:51:35;;;;;;;13.33;3.90;;;11.30;99.90;;;;;;7285505;19;20184;-79
2024/02/21 09:54:03;;;;;;;16.73;4.03;;;11.30;99.90;;;;;;7285907;19;20190;-78
2024/02/21 09:56:28;;;;;;;12.57;3.97;;;11.30;99.90;;;;;;7285309;19;20842;-79
2024/02/21 09:58:54;;;;;;;13.27;3.87;;;11.30;99.90;;;;;;7285703;19;20194;-78
2024/02/21 10:01:20;;;;;;;12.10;3.60;;;11.30;99.90;;;;;;7285937;19;20221;-78
2024/02/21 10:03:46;;;;;;;12.40;4.10;;;11.30;99.90;;;;;;7286340;19;20647;-78
2024/02/21 10:06:11;;;;;;;10.70;3.83;;;11.40;99.90;;;;;;7283537;19;20344;-78
2024/02/21 10:08:37;;;;;;;18.63;4.77;;;11.40;99.90;;;;;;7307943;19;20192;-78
2024/02/21 10:11:03;;;;;;;15.53;4.13;;;11.50;99.90;;;;;;7283341;19;20181;-78
2024/02/21 10:13:29;;;;;;;14.03;4.20;;;11.60;99.90;;;;;;7285066;19;20216;-79
2024/02/21 10:16:06;;;;;;;11.97;4.23;;;11.70;99.90;;;;;;7285300;19;20195;-79
2024/02/21 10:18:33;;;;;;;10.73;3.53;;;11.70;99.90;;;;;;7283614;19;20558;-78
2024/02/21 10:21:06;;;;;;;12.37;4.07;;;11.60;99.90;;;;;;7282855;19;20196;-78
2024/02/21 10:23:45;;;;;;;11.60;4.10;;;11.70;99.90;;;;;;7284769;19;20227;-78
2024/02/21 10:26:11;;;;;;;14.90;4.20;;;11.60;99.90;;;;;;7265347;19;20233;-78
2024/02/21 10:28:41;;;;;;;11.97;3.70;;;11.70;99.90;;;;;;7304802;19;20672;-78
2024/02/21 10:31:09;;;;;;;15.63;4.10;;;11.70;99.90;;;;;;7283228;19;20192;-79
2024/02/21 10:33:34;;;;;;;13.57;4.20;;;11.90;99.90;;;;;;7283106;19;20590;-78
2024/02/21 10:36:10;;;;;;;12.17;4.20;;;11.90;99.90;;;;;;7285020;19;20214;-79
2024/02/21 10:38:37;;;;;;;11.40;3.90;;;11.90;99.90;;;;;;7283113;19;20184;-79
2024/02/21 10:41:05;;;;;;;12.23;4.53;;;11.90;99.90;;;;;;7288679;19;20667;-81
2024/02/21 10:43:37;;;;;;;12.00;4.13;;;11.90;99.90;;;;;;7286338;19;20194;-81
2024/02/21 10:46:05;;;;;;;15.87;4.10;;;11.80;99.90;;;;;;7283973;19;20201;-80
2024/02/21 10:48:42;;;;;;;13.10;3.60;;;11.80;99.90;;;;;;7282780;19;20184;-81
2024/02/21 10:51:17;;;;;;;12.90;3.63;;;11.70;99.90;;;;;;7284024;19;20180;-80
2024/02/21 10:54:33;;;;;;;13.00;3.47;;;11.80;99.90;;;;;;7261552;19;20212;-80
2024/02/21 10:57:01;;;;;;;13.00;3.70;;;12.00;99.90;;;;;;7179886;19;2005984;-80
2024/02/21 10:59:30;;;;;;;15.63;4.07;;;12.10;99.90;;;;;;7281935;19;20299;-81
2024/02/21 11:01:55;;;;;;;12.33;4.00;;;12.10;99.90;;;;;;7282973;19;20255;-80
2024/02/21 11:04:21;;;;;;;15.13;5.40;;;11.80;99.90;;;;;;7282423;19;20209;-80
2024/02/21 11:06:48;;;;;;;13.60;4.77;;;11.60;99.90;;;;;;7284532;19;20674;-80
2024/02/21 11:09:14;;;;;;;12.90;4.03;;;11.50;99.90;;;;;;7283752;19;20637;-80
2024/02/21 11:11:41;;;;;;;15.80;4.37;;;11.80;99.90;;;;;;7304161;19;20181;-80
2024/02/21 11:14:10;;;;;;;11.37;3.50;;;11.90;99.90;;;;;;7283329;19;20197;-81
2024/02/21 11:16:40;;;;;;;11.93;4.10;;;11.80;99.90;;;;;;7283355;19;20188;-80
2024/02/21 11:19:07;;;;;;;11.23;3.77;;;11.70;99.90;;;;;;7284314;19;20211;-80
2024/02/21 11:21:36;;;;;;;12.33;4.07;;;11.70;99.90;;;;;;7282261;19;20193;-80
2024/02/21 11:24:05;;;;;;;11.87;4.00;;;11.80;99.90;;;;;;7283600;19;20209;-80
2024/02/21 11:26:32;;;;;;;12.13;3.80;;;11.80;99.90;;;;;;7282502;19;20176;-80
2024/02/21 11:29:03;;;;;;;13.90;4.00;;;11.90;99.90;;;;;;7280198;19;20750;-79
2024/02/21 11:31:40;;;;;;;11.63;3.57;;;11.80;99.90;;;;;;7278394;19;20189;-80
2024/02/21 11:34:09;;;;;;;14.27;4.20;;;11.90;99.90;;;;;;7278279;19;20224;-79
2024/02/21 11:36:35;;;;;;;12.80;4.13;;;11.90;99.90;;;;;;7277135;19;20207;-80
2024/02/21 11:39:04;;;;;;;9.90;3.57;;;11.90;99.90;;;;;;7281859;19;20212;-80
2024/02/21 11:41:30;;;;;;;9.47;3.63;;;11.80;99.90;;;;;;7280354;19;20208;-80
2024/02/21 11:43:56;;;;;;;13.17;4.13;;;11.70;99.90;;;;;;7280543;19;20726;-80
2024/02/21 11:46:23;;;;;;;10.97;3.90;;;11.70;99.90;;;;;;7282162;19;20235;-81
2024/02/21 11:48:52;;;;;;;12.80;4.53;;;11.80;99.90;;;;;;7282774;19;20192;-80
2024/02/21 11:51:24;;;;;;;16.03;4.40;;;11.90;99.90;;;;;;7282651;19;20545;-80
2024/02/21 11:53:54;;;;;;;15.40;4.60;;;11.70;99.90;;;;;;7281655;19;20567;-80
2024/02/21 11:56:20;;;;;;;13.40;4.10;;;11.80;99.90;;;;;;7279992;19;20196;-80
2024/02/21 11:58:49;;;;;;;13.90;4.17;;;11.70;99.90;;;;;;7282300;19;20204;-79
2024/02/21 12:01:15;;;;;;;14.00;3.87;;;11.80;99.90;;;;;;7281034;19;20193;-79
2024/02/21 12:03:49;;;;;;;13.93;3.87;;;11.90;99.90;;;;;;7292602;19;20181;-79
2024/02/21 12:06:19;;;;;;;12.67;3.77;;;12.00;99.90;;;;;;7281501;19;20200;-80
2024/02/21 12:08:45;;;;;;;11.93;4.37;;;12.10;99.90;;;;;;7287345;19;20181;-79
2024/02/21 12:11:23;;;;;;;12.10;4.40;;;12.10;99.90;;;;;;7298263;19;20205;-79
2024/02/21 12:14:03;;;;;;;14.53;3.97;;;12.00;99.90;;;;;;7286280;19;20248;-80
2024/02/21 12:16:32;;;;;;;11.30;3.93;;;12.00;99.90;;;;;;7286623;19;20206;-80
2024/02/21 12:19:02;;;;;;;11.63;4.20;;;12.00;99.90;;;;;;7286555;19;20569;-80
2024/02/21 12:21:32;;;;;;;12.10;4.37;;;11.90;99.90;;;;;;7286655;19;20189;-81
2024/02/21 12:23:58;;;;;;;9.20;4.37;;;11.90;99.90;;;;;;7286025;19;20213;-80
2024/02/21 12:26:24;;;;;;;13.57;4.23;;;11.90;99.90;;;;;;7286518;19;20185;-80
2024/02/21 12:28:50;;;;;;;14.17;4.50;;;12.00;99.90;;;;;;7284793;19;20651;-80
2024/02/21 12:31:16;;;;;;;13.13;4.50;;;12.20;99.90;;;;;;7288718;19;20189;-79